sensor_id;sensor_type;location;lat;lon;timestamp;P1;durP1;ratioP1;P2;durP2;ratioP2
59571;SDS011;70118;45.638;11.714;2023-07-30T00:02:04;7.65;;;4.28;;
59571;SDS011;70118;45.638;11.714;2023-07-30T00:04:31;7.00;;;4.30;;
59571;SDS011;70118;45.638;11.714;2023-07-30T00:06:57;8.47;;;4.60;;
59571;SDS011;70118;45.638;11.714;2023-07-30T00:09:22;7.10;;;4.43;;
59571;SDS011;70118;45.638;11.714;2023-07-30T00:11:50;6.00;;;3.78;;
59571;SDS011;70118;45.638;11.714;2023-07-30T00:14:18;6.90;;;4.47;;
59571;SDS011;70118;45.638;11.714;2023-07-30T00:16:44;6.78;;;4.40;;
59571;SDS011;70118;45.638;11.714;2023-07-30T00:19:10;6.50;;;4.40;;
59571;SDS011;70118;45.638;11.714;2023-07-30T00:21:37;6.37;;;4.17;;
59571;SDS011;70118;45.638;11.714;2023-07-30T00:24:03;7.75;;;3.85;;
59571;SDS011;70118;45.638;11.714;2023-07-30T00:26:29;8.80;;;4.38;;
59571;SDS011;70118;45.638;11.714;2023-07-30T00:28:55;7.82;;;4.30;;
59571;SDS011;70118;45.638;11.714;2023-07-30T00:31:22;6.70;;;4.07;;
59571;SDS011;70118;45.638;11.714;2023-07-30T00:33:48;6.43;;;4.20;;
59571;SDS011;70118;45.638;11.714;2023-07-30T00:36:14;5.95;;;4.00;;
59571;SDS011;70118;45.638;11.714;2023-07-30T00:38:39;7.20;;;4.40;;
59571;SDS011;70118;45.638;11.714;2023-07-30T00:41:05;6.77;;;3.80;;
59571;SDS011;70118;45.638;11.714;2023-07-30T00:43:32;6.70;;;4.00;;
59571;SDS011;70118;45.638;11.714;2023-07-30T00:46:00;7.55;;;4.07;;
59571;SDS011;70118;45.638;11.714;2023-07-30T00:48:26;8.32;;;4.65;;
59571;SDS011;70118;45.638;11.714;2023-07-30T00:50:53;7.17;;;4.20;;
59571;SDS011;70118;45.638;11.714;2023-07-30T00:53:20;7.82;;;3.95;;
59571;SDS011;70118;45.638;11.714;2023-07-30T00:55:47;8.90;;;4.60;;
59571;SDS011;70118;45.638;11.714;2023-07-30T00:58:13;9.80;;;4.38;;
59571;SDS011;70118;45.638;11.714;2023-07-30T01:03:05;8.63;;;4.33;;
59571;SDS011;70118;45.638;11.714;2023-07-30T01:05:31;7.32;;;4.13;;
59571;SDS011;70118;45.638;11.714;2023-07-30T01:08:00;6.90;;;4.00;;
59571;SDS011;70118;45.638;11.714;2023-07-30T01:10:28;6.32;;;4.22;;
59571;SDS011;70118;45.638;11.714;2023-07-30T01:12:57;5.80;;;3.80;;
59571;SDS011;70118;45.638;11.714;2023-07-30T01:15:26;8.13;;;4.20;;
59571;SDS011;70118;45.638;11.714;2023-07-30T01:17:57;8.50;;;4.57;;
59571;SDS011;70118;45.638;11.714;2023-07-30T01:20:23;7.23;;;4.80;;
59571;SDS011;70118;45.638;11.714;2023-07-30T01:22:49;9.18;;;5.07;;
59571;SDS011;70118;45.638;11.714;2023-07-30T01:25:17;7.40;;;5.50;;
59571;SDS011;70118;45.638;11.714;2023-07-30T01:27:48;8.40;;;5.35;;
59571;SDS011;70118;45.638;11.714;2023-07-30T01:30:18;8.93;;;5.40;;
59571;SDS011;70118;45.638;11.714;2023-07-30T01:32:50;10.60;;;5.32;;
59571;SDS011;70118;45.638;11.714;2023-07-30T01:35:22;9.55;;;5.97;;
59571;SDS011;70118;45.638;11.714;2023-07-30T01:37:52;7.65;;;5.55;;
59571;SDS011;70118;45.638;11.714;2023-07-30T01:40:19;7.72;;;5.53;;
59571;SDS011;70118;45.638;11.714;2023-07-30T01:42:46;10.70;;;6.00;;
59571;SDS011;70118;45.638;11.714;2023-07-30T01:45:13;7.38;;;4.75;;
59571;SDS011;70118;45.638;11.714;2023-07-30T01:47:39;8.32;;;4.85;;
59571;SDS011;70118;45.638;11.714;2023-07-30T01:50:06;8.20;;;4.93;;
59571;SDS011;70118;45.638;11.714;2023-07-30T01:52:32;6.90;;;4.63;;
59571;SDS011;70118;45.638;11.714;2023-07-30T01:54:58;7.45;;;4.82;;
59571;SDS011;70118;45.638;11.714;2023-07-30T01:57:25;7.88;;;4.88;;
59571;SDS011;70118;45.638;11.714;2023-07-30T01:59:52;7.22;;;4.50;;
59571;SDS011;70118;45.638;11.714;2023-07-30T02:02:17;8.33;;;5.20;;
59571;SDS011;70118;45.638;11.714;2023-07-30T02:04:43;8.68;;;5.35;;
59571;SDS011;70118;45.638;11.714;2023-07-30T02:07:09;9.18;;;5.70;;
59571;SDS011;70118;45.638;11.714;2023-07-30T02:09:35;8.77;;;5.95;;
59571;SDS011;70118;45.638;11.714;2023-07-30T02:12:01;8.60;;;5.90;;
59571;SDS011;70118;45.638;11.714;2023-07-30T02:14:27;10.02;;;6.55;;
59571;SDS011;70118;45.638;11.714;2023-07-30T02:16:53;9.90;;;6.72;;
59571;SDS011;70118;45.638;11.714;2023-07-30T02:19:19;9.17;;;5.77;;
59571;SDS011;70118;45.638;11.714;2023-07-30T02:21:45;8.20;;;5.70;;
59571;SDS011;70118;45.638;11.714;2023-07-30T02:24:11;8.13;;;5.28;;
59571;SDS011;70118;45.638;11.714;2023-07-30T02:26:39;10.83;;;5.90;;
59571;SDS011;70118;45.638;11.714;2023-07-30T02:29:05;8.45;;;5.40;;
59571;SDS011;70118;45.638;11.714;2023-07-30T02:31:31;8.50;;;5.00;;
59571;SDS011;70118;45.638;11.714;2023-07-30T02:33:57;7.57;;;5.20;;
59571;SDS011;70118;45.638;11.714;2023-07-30T02:36:23;9.27;;;5.80;;
59571;SDS011;70118;45.638;11.714;2023-07-30T02:38:49;9.50;;;4.97;;
59571;SDS011;70118;45.638;11.714;2023-07-30T02:41:16;7.40;;;5.13;;
59571;SDS011;70118;45.638;11.714;2023-07-30T02:43:42;9.70;;;5.22;;
59571;SDS011;70118;45.638;11.714;2023-07-30T02:46:07;8.17;;;4.97;;
59571;SDS011;70118;45.638;11.714;2023-07-30T02:48:33;7.93;;;4.75;;
59571;SDS011;70118;45.638;11.714;2023-07-30T02:50:59;7.63;;;5.25;;
59571;SDS011;70118;45.638;11.714;2023-07-30T02:53:25;7.73;;;4.60;;
59571;SDS011;70118;45.638;11.714;2023-07-30T02:55:51;7.28;;;5.10;;
59571;SDS011;70118;45.638;11.714;2023-07-30T02:58:17;7.03;;;4.47;;
59571;SDS011;70118;45.638;11.714;2023-07-30T03:00:43;8.37;;;4.53;;
59571;SDS011;70118;45.638;11.714;2023-07-30T03:03:09;7.13;;;4.50;;
59571;SDS011;70118;45.638;11.714;2023-07-30T03:05:35;8.07;;;4.30;;
59571;SDS011;70118;45.638;11.714;2023-07-30T03:08:00;7.70;;;4.77;;
59571;SDS011;70118;45.638;11.714;2023-07-30T03:10:26;7.38;;;4.82;;
59571;SDS011;70118;45.638;11.714;2023-07-30T03:12:52;7.38;;;4.55;;
59571;SDS011;70118;45.638;11.714;2023-07-30T03:15:18;7.60;;;4.43;;
59571;SDS011;70118;45.638;11.714;2023-07-30T03:17:44;7.03;;;4.07;;
59571;SDS011;70118;45.638;11.714;2023-07-30T03:20:10;6.30;;;3.40;;
59571;SDS011;70118;45.638;11.714;2023-07-30T03:22:36;7.07;;;3.83;;
59571;SDS011;70118;45.638;11.714;2023-07-30T03:25:02;7.32;;;4.13;;
59571;SDS011;70118;45.638;11.714;2023-07-30T03:27:28;5.78;;;4.00;;
59571;SDS011;70118;45.638;11.714;2023-07-30T03:29:54;7.13;;;4.13;;
59571;SDS011;70118;45.638;11.714;2023-07-30T03:32:19;6.60;;;4.45;;
59571;SDS011;70118;45.638;11.714;2023-07-30T03:34:45;7.88;;;4.30;;
59571;SDS011;70118;45.638;11.714;2023-07-30T03:37:11;6.20;;;3.93;;
59571;SDS011;70118;45.638;11.714;2023-07-30T03:39:37;6.20;;;4.00;;
59571;SDS011;70118;45.638;11.714;2023-07-30T03:42:03;6.10;;;3.63;;
59571;SDS011;70118;45.638;11.714;2023-07-30T03:44:29;5.40;;;3.67;;
59571;SDS011;70118;45.638;11.714;2023-07-30T03:46:55;6.18;;;3.80;;
59571;SDS011;70118;45.638;11.714;2023-07-30T03:49:21;5.68;;;3.25;;
59571;SDS011;70118;45.638;11.714;2023-07-30T03:51:47;5.40;;;3.30;;
59571;SDS011;70118;45.638;11.714;2023-07-30T03:54:12;8.38;;;3.42;;
59571;SDS011;70118;45.638;11.714;2023-07-30T03:56:38;5.63;;;3.40;;
59571;SDS011;70118;45.638;11.714;2023-07-30T03:59:04;6.27;;;3.03;;
59571;SDS011;70118;45.638;11.714;2023-07-30T04:01:30;5.28;;;3.00;;
59571;SDS011;70118;45.638;11.714;2023-07-30T04:03:56;5.38;;;3.10;;
59571;SDS011;70118;45.638;11.714;2023-07-30T04:06:22;5.47;;;3.03;;
59571;SDS011;70118;45.638;11.714;2023-07-30T04:08:48;5.22;;;3.08;;
59571;SDS011;70118;45.638;11.714;2023-07-30T04:11:14;6.25;;;2.90;;
59571;SDS011;70118;45.638;11.714;2023-07-30T04:13:39;6.00;;;2.93;;
59571;SDS011;70118;45.638;11.714;2023-07-30T04:16:06;6.03;;;3.85;;
59571;SDS011;70118;45.638;11.714;2023-07-30T04:18:31;5.45;;;3.17;;
59571;SDS011;70118;45.638;11.714;2023-07-30T04:20:57;4.90;;;2.80;;
59571;SDS011;70118;45.638;11.714;2023-07-30T04:23:23;6.22;;;3.03;;
59571;SDS011;70118;45.638;11.714;2023-07-30T04:25:49;5.18;;;3.03;;
59571;SDS011;70118;45.638;11.714;2023-07-30T04:28:16;5.55;;;3.00;;
59571;SDS011;70118;45.638;11.714;2023-07-30T04:30:42;5.87;;;3.20;;
59571;SDS011;70118;45.638;11.714;2023-07-30T04:33:08;4.82;;;2.38;;
59571;SDS011;70118;45.638;11.714;2023-07-30T04:35:34;6.40;;;2.53;;
59571;SDS011;70118;45.638;11.714;2023-07-30T04:38:00;5.20;;;2.58;;
59571;SDS011;70118;45.638;11.714;2023-07-30T04:40:26;4.43;;;2.10;;
59571;SDS011;70118;45.638;11.714;2023-07-30T04:42:52;4.80;;;2.17;;
59571;SDS011;70118;45.638;11.714;2023-07-30T04:45:19;4.65;;;2.08;;
59571;SDS011;70118;45.638;11.714;2023-07-30T04:47:45;4.47;;;1.80;;
59571;SDS011;70118;45.638;11.714;2023-07-30T04:50:11;4.13;;;2.00;;
59571;SDS011;70118;45.638;11.714;2023-07-30T04:52:37;4.45;;;1.83;;
59571;SDS011;70118;45.638;11.714;2023-07-30T04:55:03;4.20;;;2.03;;
59571;SDS011;70118;45.638;11.714;2023-07-30T04:57:29;3.78;;;1.80;;
59571;SDS011;70118;45.638;11.714;2023-07-30T04:59:55;3.70;;;1.60;;
59571;SDS011;70118;45.638;11.714;2023-07-30T05:02:21;5.30;;;1.87;;
59571;SDS011;70118;45.638;11.714;2023-07-30T05:04:47;4.90;;;1.60;;
59571;SDS011;70118;45.638;11.714;2023-07-30T05:07:13;3.90;;;1.83;;
59571;SDS011;70118;45.638;11.714;2023-07-30T05:09:39;5.17;;;1.73;;
59571;SDS011;70118;45.638;11.714;2023-07-30T05:12:05;4.22;;;1.73;;
59571;SDS011;70118;45.638;11.714;2023-07-30T05:14:31;3.42;;;1.20;;
59571;SDS011;70118;45.638;11.714;2023-07-30T05:16:56;3.80;;;1.40;;
59571;SDS011;70118;45.638;11.714;2023-07-30T05:19:22;3.70;;;1.50;;
59571;SDS011;70118;45.638;11.714;2023-07-30T05:21:48;4.63;;;1.50;;
59571;SDS011;70118;45.638;11.714;2023-07-30T05:24:14;4.37;;;1.47;;
59571;SDS011;70118;45.638;11.714;2023-07-30T05:26:41;2.97;;;1.17;;
59571;SDS011;70118;45.638;11.714;2023-07-30T05:29:10;3.70;;;1.20;;
59571;SDS011;70118;45.638;11.714;2023-07-30T05:31:40;2.97;;;1.17;;
59571;SDS011;70118;45.638;11.714;2023-07-30T05:34:07;4.47;;;1.73;;
59571;SDS011;70118;45.638;11.714;2023-07-30T05:36:34;4.30;;;1.40;;
59571;SDS011;70118;45.638;11.714;2023-07-30T05:39:00;3.45;;;1.48;;
59571;SDS011;70118;45.638;11.714;2023-07-30T05:41:27;3.97;;;1.50;;
59571;SDS011;70118;45.638;11.714;2023-07-30T05:43:58;3.78;;;1.42;;
59571;SDS011;70118;45.638;11.714;2023-07-30T05:46:24;3.90;;;1.33;;
59571;SDS011;70118;45.638;11.714;2023-07-30T05:48:49;4.80;;;1.30;;
59571;SDS011;70118;45.638;11.714;2023-07-30T05:51:15;4.05;;;1.50;;
59571;SDS011;70118;45.638;11.714;2023-07-30T05:53:42;4.73;;;1.27;;
59571;SDS011;70118;45.638;11.714;2023-07-30T05:56:08;4.13;;;1.30;;
59571;SDS011;70118;45.638;11.714;2023-07-30T05:58:35;5.10;;;1.38;;
59571;SDS011;70118;45.638;11.714;2023-07-30T06:01:02;4.68;;;1.27;;
59571;SDS011;70118;45.638;11.714;2023-07-30T06:03:35;4.13;;;1.60;;
59571;SDS011;70118;45.638;11.714;2023-07-30T06:06:01;3.40;;;1.33;;
59571;SDS011;70118;45.638;11.714;2023-07-30T06:08:27;3.63;;;1.40;;
59571;SDS011;70118;45.638;11.714;2023-07-30T06:11:02;4.20;;;1.45;;
59571;SDS011;70118;45.638;11.714;2023-07-30T06:13:28;3.53;;;1.30;;
59571;SDS011;70118;45.638;11.714;2023-07-30T06:15:56;4.38;;;1.20;;
59571;SDS011;70118;45.638;11.714;2023-07-30T06:18:25;3.50;;;1.58;;
59571;SDS011;70118;45.638;11.714;2023-07-30T06:20:51;3.47;;;1.20;;
59571;SDS011;70118;45.638;11.714;2023-07-30T06:23:19;3.47;;;1.37;;
59571;SDS011;70118;45.638;11.714;2023-07-30T06:25:50;3.15;;;1.15;;
59571;SDS011;70118;45.638;11.714;2023-07-30T06:28:16;3.95;;;1.50;;
59571;SDS011;70118;45.638;11.714;2023-07-30T06:30:45;4.25;;;1.40;;
59571;SDS011;70118;45.638;11.714;2023-07-30T06:33:14;4.00;;;1.40;;
59571;SDS011;70118;45.638;11.714;2023-07-30T06:35:41;3.50;;;1.30;;
59571;SDS011;70118;45.638;11.714;2023-07-30T06:38:08;3.30;;;1.25;;
59571;SDS011;70118;45.638;11.714;2023-07-30T06:40:35;4.25;;;1.40;;
59571;SDS011;70118;45.638;11.714;2023-07-30T06:43:01;3.63;;;1.27;;
59571;SDS011;70118;45.638;11.714;2023-07-30T06:45:27;3.60;;;1.30;;
59571;SDS011;70118;45.638;11.714;2023-07-30T06:47:53;4.78;;;1.50;;
59571;SDS011;70118;45.638;11.714;2023-07-30T06:50:19;3.78;;;1.20;;
59571;SDS011;70118;45.638;11.714;2023-07-30T06:52:45;3.63;;;1.10;;
59571;SDS011;70118;45.638;11.714;2023-07-30T06:55:11;3.70;;;1.10;;
59571;SDS011;70118;45.638;11.714;2023-07-30T06:57:36;4.68;;;1.33;;
59571;SDS011;70118;45.638;11.714;2023-07-30T07:00:03;4.47;;;1.50;;
59571;SDS011;70118;45.638;11.714;2023-07-30T07:02:30;3.72;;;1.27;;
59571;SDS011;70118;45.638;11.714;2023-07-30T07:04:55;3.70;;;1.17;;
59571;SDS011;70118;45.638;11.714;2023-07-30T07:07:21;4.33;;;1.50;;
59571;SDS011;70118;45.638;11.714;2023-07-30T07:09:47;3.17;;;1.38;;
59571;SDS011;70118;45.638;11.714;2023-07-30T07:12:13;3.20;;;1.20;;
59571;SDS011;70118;45.638;11.714;2023-07-30T07:14:39;3.83;;;1.30;;
59571;SDS011;70118;45.638;11.714;2023-07-30T07:17:06;3.60;;;1.20;;
59571;SDS011;70118;45.638;11.714;2023-07-30T07:19:31;3.30;;;1.23;;
59571;SDS011;70118;45.638;11.714;2023-07-30T07:22:01;3.47;;;1.00;;
59571;SDS011;70118;45.638;11.714;2023-07-30T07:24:30;4.10;;;1.07;;
59571;SDS011;70118;45.638;11.714;2023-07-30T07:26:56;3.78;;;1.42;;
59571;SDS011;70118;45.638;11.714;2023-07-30T07:29:22;3.50;;;1.17;;
59571;SDS011;70118;45.638;11.714;2023-07-30T07:31:48;7.32;;;1.52;;
59571;SDS011;70118;45.638;11.714;2023-07-30T07:34:14;5.20;;;1.00;;
59571;SDS011;70118;45.638;11.714;2023-07-30T07:36:40;4.20;;;1.08;;
59571;SDS011;70118;45.638;11.714;2023-07-30T07:39:06;5.00;;;2.03;;
59571;SDS011;70118;45.638;11.714;2023-07-30T07:41:31;5.25;;;2.10;;
59571;SDS011;70118;45.638;11.714;2023-07-30T07:43:57;8.57;;;2.55;;
59571;SDS011;70118;45.638;11.714;2023-07-30T07:46:23;4.70;;;1.83;;
59571;SDS011;70118;45.638;11.714;2023-07-30T07:48:51;4.35;;;1.60;;
59571;SDS011;70118;45.638;11.714;2023-07-30T07:51:17;6.50;;;2.38;;
59571;SDS011;70118;45.638;11.714;2023-07-30T07:53:43;8.33;;;2.23;;
59571;SDS011;70118;45.638;11.714;2023-07-30T07:56:08;5.13;;;1.70;;
59571;SDS011;70118;45.638;11.714;2023-07-30T07:58:34;6.45;;;1.83;;
59571;SDS011;70118;45.638;11.714;2023-07-30T08:01:01;6.03;;;1.50;;
59571;SDS011;70118;45.638;11.714;2023-07-30T08:03:27;5.57;;;1.80;;
59571;SDS011;70118;45.638;11.714;2023-07-30T08:05:53;6.50;;;2.58;;
59571;SDS011;70118;45.638;11.714;2023-07-30T08:08:19;6.72;;;2.33;;
59571;SDS011;70118;45.638;11.714;2023-07-30T08:10:45;4.97;;;2.40;;
59571;SDS011;70118;45.638;11.714;2023-07-30T08:13:13;5.60;;;2.33;;
59571;SDS011;70118;45.638;11.714;2023-07-30T08:15:39;7.32;;;2.42;;
59571;SDS011;70118;45.638;11.714;2023-07-30T08:18:05;6.95;;;2.63;;
59571;SDS011;70118;45.638;11.714;2023-07-30T08:20:31;6.68;;;2.53;;
59571;SDS011;70118;45.638;11.714;2023-07-30T08:22:57;5.10;;;2.40;;
59571;SDS011;70118;45.638;11.714;2023-07-30T08:25:22;9.00;;;2.75;;
59571;SDS011;70118;45.638;11.714;2023-07-30T08:27:48;7.23;;;2.30;;
59571;SDS011;70118;45.638;11.714;2023-07-30T08:30:14;5.17;;;1.83;;
59571;SDS011;70118;45.638;11.714;2023-07-30T08:32:40;5.78;;;1.88;;
59571;SDS011;70118;45.638;11.714;2023-07-30T08:35:08;5.95;;;2.10;;
59571;SDS011;70118;45.638;11.714;2023-07-30T08:37:34;6.15;;;1.83;;
59571;SDS011;70118;45.638;11.714;2023-07-30T08:40:00;11.45;;;2.40;;
59571;SDS011;70118;45.638;11.714;2023-07-30T08:42:26;8.70;;;2.30;;
59571;SDS011;70118;45.638;11.714;2023-07-30T08:44:52;5.35;;;1.92;;
59571;SDS011;70118;45.638;11.714;2023-07-30T08:47:18;7.13;;;1.75;;
59571;SDS011;70118;45.638;11.714;2023-07-30T08:49:44;5.83;;;1.90;;
59571;SDS011;70118;45.638;11.714;2023-07-30T08:52:10;5.72;;;2.00;;
59571;SDS011;70118;45.638;11.714;2023-07-30T08:54:37;5.50;;;1.52;;
59571;SDS011;70118;45.638;11.714;2023-07-30T08:57:04;5.13;;;1.40;;
59571;SDS011;70118;45.638;11.714;2023-07-30T08:59:37;5.73;;;1.60;;
59571;SDS011;70118;45.638;11.714;2023-07-30T09:02:09;4.60;;;1.17;;
59571;SDS011;70118;45.638;11.714;2023-07-30T09:04:43;4.80;;;0.90;;
59571;SDS011;70118;45.638;11.714;2023-07-30T09:07:14;4.97;;;1.23;;
59571;SDS011;70118;45.638;11.714;2023-07-30T09:09:41;3.80;;;1.10;;
59571;SDS011;70118;45.638;11.714;2023-07-30T09:12:14;4.63;;;1.20;;
59571;SDS011;70118;45.638;11.714;2023-07-30T09:14:40;4.13;;;0.90;;
59571;SDS011;70118;45.638;11.714;2023-07-30T09:17:10;3.83;;;1.30;;
59571;SDS011;70118;45.638;11.714;2023-07-30T09:19:41;5.20;;;1.20;;
59571;SDS011;70118;45.638;11.714;2023-07-30T09:22:07;3.13;;;0.80;;
59571;SDS011;70118;45.638;11.714;2023-07-30T09:24:33;4.37;;;1.00;;
59571;SDS011;70118;45.638;11.714;2023-07-30T09:27:02;3.65;;;1.10;;
59571;SDS011;70118;45.638;11.714;2023-07-30T09:29:28;3.40;;;1.10;;
59571;SDS011;70118;45.638;11.714;2023-07-30T09:31:54;4.67;;;0.93;;
59571;SDS011;70118;45.638;11.714;2023-07-30T09:34:22;3.10;;;1.00;;
59571;SDS011;70118;45.638;11.714;2023-07-30T09:36:55;4.57;;;1.10;;
59571;SDS011;70118;45.638;11.714;2023-07-30T09:39:25;3.50;;;1.20;;
59571;SDS011;70118;45.638;11.714;2023-07-30T09:41:52;4.30;;;1.20;;
59571;SDS011;70118;45.638;11.714;2023-07-30T09:44:24;3.25;;;0.80;;
59571;SDS011;70118;45.638;11.714;2023-07-30T09:46:50;3.53;;;1.00;;
59571;SDS011;70118;45.638;11.714;2023-07-30T09:49:17;4.40;;;1.00;;
59571;SDS011;70118;45.638;11.714;2023-07-30T09:51:43;3.58;;;0.80;;
59571;SDS011;70118;45.638;11.714;2023-07-30T09:54:13;3.70;;;1.00;;
59571;SDS011;70118;45.638;11.714;2023-07-30T09:56:40;4.03;;;1.10;;
59571;SDS011;70118;45.638;11.714;2023-07-30T09:59:07;4.67;;;1.23;;
59571;SDS011;70118;45.638;11.714;2023-07-30T10:01:52;3.65;;;1.17;;
59571;SDS011;70118;45.638;11.714;2023-07-30T10:04:20;4.82;;;1.40;;
59571;SDS011;70118;45.638;11.714;2023-07-30T10:09:40;3.47;;;1.10;;
59571;SDS011;70118;45.638;11.714;2023-07-30T10:12:14;5.67;;;1.00;;
59571;SDS011;70118;45.638;11.714;2023-07-30T10:14:42;3.13;;;0.93;;
59571;SDS011;70118;45.638;11.714;2023-07-30T10:17:12;4.65;;;1.23;;
59571;SDS011;70118;45.638;11.714;2023-07-30T10:19:38;4.45;;;1.08;;
59571;SDS011;70118;45.638;11.714;2023-07-30T10:24:39;4.05;;;0.98;;
59571;SDS011;70118;45.638;11.714;2023-07-30T10:27:22;5.43;;;1.60;;
59571;SDS011;70118;45.638;11.714;2023-07-30T10:29:51;9.77;;;1.90;;
59571;SDS011;70118;45.638;11.714;2023-07-30T10:33:03;10.00;;;3.22;;
59571;SDS011;70118;45.638;11.714;2023-07-30T10:35:34;14.23;;;3.63;;
59571;SDS011;70118;45.638;11.714;2023-07-30T10:38:14;13.75;;;4.15;;
59571;SDS011;70118;45.638;11.714;2023-07-30T10:40:59;13.60;;;4.32;;
59571;SDS011;70118;45.638;11.714;2023-07-30T10:43:27;19.83;;;5.78;;
59571;SDS011;70118;45.638;11.714;2023-07-30T10:45:59;16.65;;;5.35;;
59571;SDS011;70118;45.638;11.714;2023-07-30T10:48:37;15.60;;;5.20;;
59571;SDS011;70118;45.638;11.714;2023-07-30T10:51:14;15.18;;;4.88;;
59571;SDS011;70118;45.638;11.714;2023-07-30T10:53:42;12.60;;;5.25;;
59571;SDS011;70118;45.638;11.714;2023-07-30T10:56:09;11.25;;;4.57;;
59571;SDS011;70118;45.638;11.714;2023-07-30T10:58:35;12.80;;;4.90;;
59571;SDS011;70118;45.638;11.714;2023-07-30T11:01:05;11.87;;;4.53;;
59571;SDS011;70118;45.638;11.714;2023-07-30T11:03:33;11.50;;;4.68;;
59571;SDS011;70118;45.638;11.714;2023-07-30T11:06:01;13.63;;;4.72;;
59571;SDS011;70118;45.638;11.714;2023-07-30T11:11:03;13.90;;;5.07;;
59571;SDS011;70118;45.638;11.714;2023-07-30T11:13:34;12.37;;;4.87;;
59571;SDS011;70118;45.638;11.714;2023-07-30T11:16:08;10.15;;;4.72;;
59571;SDS011;70118;45.638;11.714;2023-07-30T11:18:36;12.35;;;4.53;;
59571;SDS011;70118;45.638;11.714;2023-07-30T11:21:03;11.35;;;4.55;;
59571;SDS011;70118;45.638;11.714;2023-07-30T11:23:36;13.40;;;4.80;;
59571;SDS011;70118;45.638;11.714;2023-07-30T11:26:04;11.67;;;5.30;;
59571;SDS011;70118;45.638;11.714;2023-07-30T11:33:31;12.23;;;4.47;;
59571;SDS011;70118;45.638;11.714;2023-07-30T11:35:59;10.40;;;4.50;;
59571;SDS011;70118;45.638;11.714;2023-07-30T11:38:26;13.63;;;5.00;;
59571;SDS011;70118;45.638;11.714;2023-07-30T11:40:53;10.75;;;4.68;;
59571;SDS011;70118;45.638;11.714;2023-07-30T11:43:20;11.90;;;4.55;;
59571;SDS011;70118;45.638;11.714;2023-07-30T11:45:47;12.00;;;4.55;;
59571;SDS011;70118;45.638;11.714;2023-07-30T11:48:13;10.57;;;4.28;;
59571;SDS011;70118;45.638;11.714;2023-07-30T11:50:49;11.90;;;4.47;;
59571;SDS011;70118;45.638;11.714;2023-07-30T11:53:16;13.77;;;4.75;;
59571;SDS011;70118;45.638;11.714;2023-07-30T11:55:44;9.68;;;3.80;;
59571;SDS011;70118;45.638;11.714;2023-07-30T11:58:11;11.13;;;4.28;;
59571;SDS011;70118;45.638;11.714;2023-07-30T12:00:38;10.68;;;4.45;;
59571;SDS011;70118;45.638;11.714;2023-07-30T12:03:06;11.30;;;4.63;;
59571;SDS011;70118;45.638;11.714;2023-07-30T12:05:34;10.32;;;4.13;;
59571;SDS011;70118;45.638;11.714;2023-07-30T12:08:05;12.77;;;4.28;;
59571;SDS011;70118;45.638;11.714;2023-07-30T12:10:41;9.63;;;3.90;;
59571;SDS011;70118;45.638;11.714;2023-07-30T12:13:17;10.00;;;4.13;;
59571;SDS011;70118;45.638;11.714;2023-07-30T12:15:50;9.67;;;3.93;;
59571;SDS011;70118;45.638;11.714;2023-07-30T12:18:20;8.80;;;4.05;;
59571;SDS011;70118;45.638;11.714;2023-07-30T12:20:46;11.93;;;4.25;;
59571;SDS011;70118;45.638;11.714;2023-07-30T12:23:13;10.43;;;3.78;;
59571;SDS011;70118;45.638;11.714;2023-07-30T12:25:39;12.30;;;3.80;;
59571;SDS011;70118;45.638;11.714;2023-07-30T12:28:05;9.50;;;3.63;;
59571;SDS011;70118;45.638;11.714;2023-07-30T12:30:31;9.52;;;3.88;;
59571;SDS011;70118;45.638;11.714;2023-07-30T12:32:57;9.82;;;4.00;;
59571;SDS011;70118;45.638;11.714;2023-07-30T12:35:23;10.70;;;4.70;;
59571;SDS011;70118;45.638;11.714;2023-07-30T12:37:49;9.63;;;3.90;;
59571;SDS011;70118;45.638;11.714;2023-07-30T12:40:16;8.18;;;3.28;;
59571;SDS011;70118;45.638;11.714;2023-07-30T12:42:42;8.98;;;3.67;;
59571;SDS011;70118;45.638;11.714;2023-07-30T12:45:08;9.67;;;4.17;;
59571;SDS011;70118;45.638;11.714;2023-07-30T12:47:34;7.78;;;3.67;;
59571;SDS011;70118;45.638;11.714;2023-07-30T12:50:01;9.60;;;4.22;;
59571;SDS011;70118;45.638;11.714;2023-07-30T12:52:28;8.70;;;3.78;;
59571;SDS011;70118;45.638;11.714;2023-07-30T12:54:54;9.13;;;3.72;;
59571;SDS011;70118;45.638;11.714;2023-07-30T12:57:20;7.37;;;3.47;;
59571;SDS011;70118;45.638;11.714;2023-07-30T12:59:45;8.98;;;3.80;;
59571;SDS011;70118;45.638;11.714;2023-07-30T13:02:11;8.10;;;3.30;;
59571;SDS011;70118;45.638;11.714;2023-07-30T13:04:37;9.33;;;3.37;;
59571;SDS011;70118;45.638;11.714;2023-07-30T13:07:03;9.63;;;3.70;;
59571;SDS011;70118;45.638;11.714;2023-07-30T13:09:30;8.65;;;3.80;;
59571;SDS011;70118;45.638;11.714;2023-07-30T13:11:56;7.22;;;3.28;;
59571;SDS011;70118;45.638;11.714;2023-07-30T13:14:22;8.07;;;3.43;;
59571;SDS011;70118;45.638;11.714;2023-07-30T13:16:48;7.55;;;3.35;;
59571;SDS011;70118;45.638;11.714;2023-07-30T13:19:13;9.35;;;3.63;;
59571;SDS011;70118;45.638;11.714;2023-07-30T13:21:40;8.20;;;3.13;;
59571;SDS011;70118;45.638;11.714;2023-07-30T13:24:10;7.50;;;3.13;;
59571;SDS011;70118;45.638;11.714;2023-07-30T13:26:36;9.55;;;3.42;;
59571;SDS011;70118;45.638;11.714;2023-07-30T13:29:03;8.57;;;3.57;;
59571;SDS011;70118;45.638;11.714;2023-07-30T13:31:30;8.43;;;3.78;;
59571;SDS011;70118;45.638;11.714;2023-07-30T13:33:56;7.85;;;3.30;;
59571;SDS011;70118;45.638;11.714;2023-07-30T13:36:21;9.25;;;3.58;;
59571;SDS011;70118;45.638;11.714;2023-07-30T13:38:47;7.93;;;3.23;;
59571;SDS011;70118;45.638;11.714;2023-07-30T13:41:13;8.98;;;3.08;;
59571;SDS011;70118;45.638;11.714;2023-07-30T13:43:39;9.23;;;3.47;;
59571;SDS011;70118;45.638;11.714;2023-07-30T13:46:05;7.03;;;3.50;;
59571;SDS011;70118;45.638;11.714;2023-07-30T13:48:31;7.30;;;3.30;;
59571;SDS011;70118;45.638;11.714;2023-07-30T13:50:57;8.15;;;2.90;;
59571;SDS011;70118;45.638;11.714;2023-07-30T13:53:23;8.63;;;3.27;;
59571;SDS011;70118;45.638;11.714;2023-07-30T13:55:49;13.02;;;3.70;;
59571;SDS011;70118;45.638;11.714;2023-07-30T13:58:14;13.13;;;3.40;;
59571;SDS011;70118;45.638;11.714;2023-07-30T14:00:41;9.50;;;3.38;;
59571;SDS011;70118;45.638;11.714;2023-07-30T14:03:07;8.33;;;3.00;;
59571;SDS011;70118;45.638;11.714;2023-07-30T14:05:33;8.07;;;2.90;;
59571;SDS011;70118;45.638;11.714;2023-07-30T14:07:59;8.25;;;2.72;;
59571;SDS011;70118;45.638;11.714;2023-07-30T14:10:25;8.60;;;3.08;;
59571;SDS011;70118;45.638;11.714;2023-07-30T14:12:52;9.43;;;2.92;;
59571;SDS011;70118;45.638;11.714;2023-07-30T14:15:18;7.67;;;2.90;;
59571;SDS011;70118;45.638;11.714;2023-07-30T14:17:44;8.82;;;3.60;;
59571;SDS011;70118;45.638;11.714;2023-07-30T14:20:11;7.75;;;2.90;;
59571;SDS011;70118;45.638;11.714;2023-07-30T14:22:39;7.85;;;2.92;;
59571;SDS011;70118;45.638;11.714;2023-07-30T14:25:06;6.90;;;2.70;;
59571;SDS011;70118;45.638;11.714;2023-07-30T14:27:33;9.20;;;3.30;;
59571;SDS011;70118;45.638;11.714;2023-07-30T14:29:59;7.75;;;3.05;;
59571;SDS011;70118;45.638;11.714;2023-07-30T14:32:25;9.17;;;2.80;;
59571;SDS011;70118;45.638;11.714;2023-07-30T14:34:52;8.48;;;3.10;;
59571;SDS011;70118;45.638;11.714;2023-07-30T14:37:19;6.93;;;2.78;;
59571;SDS011;70118;45.638;11.714;2023-07-30T14:39:45;10.40;;;2.90;;
59571;SDS011;70118;45.638;11.714;2023-07-30T14:42:11;7.15;;;2.60;;
59571;SDS011;70118;45.638;11.714;2023-07-30T14:44:41;6.68;;;2.90;;
59571;SDS011;70118;45.638;11.714;2023-07-30T14:47:08;6.43;;;2.67;;
59571;SDS011;70118;45.638;11.714;2023-07-30T14:49:36;7.13;;;2.55;;